EINN

Shannon Airport

Shannon, Ireland
METAR EINN 220400Z 21009KT 9999 FEW018CB SCT120 03/02 Q1006 NOSIG
Observed Flight Rules
Jan-22 @ 04:00 UTC (16 minutes ago) Visual Flight Rules
Wind Visibility Clouds
210° at 9 knots 10,000+ meters
  • Few at 1,800' AGL
  • Scattered at 12,000' AGL
Temperatures Readings
Current 3°C / 37°F
Dewpoint 2°C / 36°F
Humidity 93%
Altimeter 29.7" Hg
Pressure 1005.92 hPa
Elevation 20
METAR EINN 220400Z 21009KT 9999 FEW018CB SCT120 03/02 Q1006 NOSIG
Observed Flight Rules
Jan-22 @ 04:00 UTC
(16 minutes ago)
VFR
Wind Visibility
210° at 9 knots 10,000+ meters
Clouds
  • Few at 1,800' AGL
  • Scattered at 12,000' AGL
Temperature Dewpoint
3°C / 37°F 2°C / 36°F
Humidity Altimeter Pressure
93% 29.7" Hg 1005.92 hPa